Baxter, Minnesota
Current Conditions -  °F | °C
As of 10:00 AM on Monday 22 Dec 2014 (Local Time) from KBRD Reporting Station
Haze Haze  
Wind Chill: 30°   Ceiling: 600
Heat Index: 36°   Visibility: 2mi
Dew Point: 35°   Wind: 7mph
Humidity: 97%   Direction: 140°SE
Pressure: 29.61"   Gusts: NA
Location:  46.34°N, 94.29°W
Report Text: KBRD 221600Z AUTO 14006KT 2SM BR OVC006 02/02 A2961 RMK AO2 T00220017
Loading
Personal Weather Stations






























Interactive Weather Map New forecast layout! Learn more

10-Day Weather Forecast

Advertisements
Track Severe Weather on mobile